sensor_id;sensor_type;location;lat;lon;timestamp;P1;durP1;ratioP1;P2;durP2;ratioP2
10497;SDS011;5296;51.060;13.750;2022-07-15T00:01:40;1.88;;;1.30;;
10497;SDS011;5296;51.060;13.750;2022-07-15T00:06:42;2.70;;;1.27;;
10497;SDS011;5296;51.060;13.750;2022-07-15T00:11:43;2.85;;;1.55;;
10497;SDS011;5296;51.060;13.750;2022-07-15T00:16:45;3.63;;;1.30;;
10497;SDS011;5296;51.060;13.750;2022-07-15T00:21:47;1.67;;;1.00;;
10497;SDS011;5296;51.060;13.750;2022-07-15T00:26:48;3.70;;;1.20;;
10497;SDS011;5296;51.060;13.750;2022-07-15T00:31:50;2.10;;;1.20;;
10497;SDS011;5296;51.060;13.750;2022-07-15T00:36:52;1.48;;;1.10;;
10497;SDS011;5296;51.060;13.750;2022-07-15T00:41:54;3.33;;;1.20;;
10497;SDS011;5296;51.060;13.750;2022-07-15T00:46:55;1.80;;;1.23;;
10497;SDS011;5296;51.060;13.750;2022-07-15T00:51:57;3.08;;;1.20;;
10497;SDS011;5296;51.060;13.750;2022-07-15T00:57:01;2.50;;;1.23;;
10497;SDS011;5296;51.060;13.750;2022-07-15T01:02:04;3.65;;;1.20;;
10497;SDS011;5296;51.060;13.750;2022-07-15T01:07:06;2.45;;;1.13;;
10497;SDS011;5296;51.060;13.750;2022-07-15T01:12:08;1.65;;;1.20;;
10497;SDS011;5296;51.060;13.750;2022-07-15T01:17:10;2.80;;;1.05;;
10497;SDS011;5296;51.060;13.750;2022-07-15T01:22:14;2.58;;;1.40;;
10497;SDS011;5296;51.060;13.750;2022-07-15T01:27:15;6.03;;;1.20;;
10497;SDS011;5296;51.060;13.750;2022-07-15T01:32:18;1.60;;;1.20;;
10497;SDS011;5296;51.060;13.750;2022-07-15T01:37:21;1.17;;;0.95;;
10497;SDS011;5296;51.060;13.750;2022-07-15T01:42:28;1.92;;;1.17;;
10497;SDS011;5296;51.060;13.750;2022-07-15T01:47:30;2.35;;;1.08;;
10497;SDS011;5296;51.060;13.750;2022-07-15T01:52:36;1.95;;;1.10;;
10497;SDS011;5296;51.060;13.750;2022-07-15T01:57:38;1.90;;;1.08;;
10497;SDS011;5296;51.060;13.750;2022-07-15T02:02:43;1.63;;;1.00;;
10497;SDS011;5296;51.060;13.750;2022-07-15T02:07:47;2.97;;;1.00;;
10497;SDS011;5296;51.060;13.750;2022-07-15T02:12:52;1.98;;;1.30;;
10497;SDS011;5296;51.060;13.750;2022-07-15T02:17:59;2.28;;;1.23;;
10497;SDS011;5296;51.060;13.750;2022-07-15T02:23:03;3.25;;;1.15;;
10497;SDS011;5296;51.060;13.750;2022-07-15T02:28:05;1.45;;;1.17;;
10497;SDS011;5296;51.060;13.750;2022-07-15T02:33:08;3.10;;;1.40;;
10497;SDS011;5296;51.060;13.750;2022-07-15T02:38:09;1.10;;;1.00;;
10497;SDS011;5296;51.060;13.750;2022-07-15T02:43:11;1.20;;;1.10;;
10497;SDS011;5296;51.060;13.750;2022-07-15T02:48:14;3.88;;;1.30;;
10497;SDS011;5296;51.060;13.750;2022-07-15T02:53:19;2.15;;;1.00;;
10497;SDS011;5296;51.060;13.750;2022-07-15T02:58:22;1.85;;;1.10;;
10497;SDS011;5296;51.060;13.750;2022-07-15T03:03:24;2.20;;;1.05;;
10497;SDS011;5296;51.060;13.750;2022-07-15T03:08:30;3.63;;;1.10;;
10497;SDS011;5296;51.060;13.750;2022-07-15T03:13:32;2.05;;;1.35;;
10497;SDS011;5296;51.060;13.750;2022-07-15T03:18:34;2.13;;;1.23;;
10497;SDS011;5296;51.060;13.750;2022-07-15T03:23:37;2.35;;;1.30;;
10497;SDS011;5296;51.060;13.750;2022-07-15T03:28:39;1.85;;;1.20;;
10497;SDS011;5296;51.060;13.750;2022-07-15T03:33:41;2.58;;;1.40;;
10497;SDS011;5296;51.060;13.750;2022-07-15T03:38:44;2.92;;;1.45;;
10497;SDS011;5296;51.060;13.750;2022-07-15T03:43:46;3.13;;;1.30;;
10497;SDS011;5296;51.060;13.750;2022-07-15T03:48:48;3.08;;;1.30;;
10497;SDS011;5296;51.060;13.750;2022-07-15T03:53:51;2.92;;;1.33;;
10497;SDS011;5296;51.060;13.750;2022-07-15T03:58:52;3.53;;;1.65;;
10497;SDS011;5296;51.060;13.750;2022-07-15T04:03:54;3.50;;;1.50;;
10497;SDS011;5296;51.060;13.750;2022-07-15T04:08:56;2.13;;;1.60;;
10497;SDS011;5296;51.060;13.750;2022-07-15T04:13:58;3.42;;;1.50;;
10497;SDS011;5296;51.060;13.750;2022-07-15T04:19:00;4.35;;;1.45;;
10497;SDS011;5296;51.060;13.750;2022-07-15T04:24:02;2.75;;;1.60;;
10497;SDS011;5296;51.060;13.750;2022-07-15T04:29:04;1.90;;;1.73;;
10497;SDS011;5296;51.060;13.750;2022-07-15T04:34:07;4.65;;;1.83;;
10497;SDS011;5296;51.060;13.750;2022-07-15T04:39:09;5.05;;;1.80;;
10497;SDS011;5296;51.060;13.750;2022-07-15T04:44:11;4.22;;;1.70;;
10497;SDS011;5296;51.060;13.750;2022-07-15T04:49:13;3.53;;;1.40;;
10497;SDS011;5296;51.060;13.750;2022-07-15T04:54:33;6.45;;;1.60;;
10497;SDS011;5296;51.060;13.750;2022-07-15T04:59:35;2.50;;;1.42;;
10497;SDS011;5296;51.060;13.750;2022-07-15T05:04:40;5.53;;;1.63;;
10497;SDS011;5296;51.060;13.750;2022-07-15T05:09:44;4.93;;;1.75;;
10497;SDS011;5296;51.060;13.750;2022-07-15T05:14:46;3.58;;;1.48;;
10497;SDS011;5296;51.060;13.750;2022-07-15T05:19:49;5.10;;;1.60;;
10497;SDS011;5296;51.060;13.750;2022-07-15T05:24:57;6.03;;;1.60;;
10497;SDS011;5296;51.060;13.750;2022-07-15T05:29:58;4.88;;;1.65;;
10497;SDS011;5296;51.060;13.750;2022-07-15T05:35:00;3.58;;;1.58;;
10497;SDS011;5296;51.060;13.750;2022-07-15T05:40:02;5.43;;;2.00;;
10497;SDS011;5296;51.060;13.750;2022-07-15T05:45:10;4.55;;;1.50;;
10497;SDS011;5296;51.060;13.750;2022-07-15T05:50:17;8.20;;;3.75;;
10497;SDS011;5296;51.060;13.750;2022-07-15T05:55:19;2.83;;;1.60;;
10497;SDS011;5296;51.060;13.750;2022-07-15T06:00:21;10.75;;;2.20;;
10497;SDS011;5296;51.060;13.750;2022-07-15T06:05:23;5.18;;;1.77;;
10497;SDS011;5296;51.060;13.750;2022-07-15T06:10:29;5.32;;;2.20;;
10497;SDS011;5296;51.060;13.750;2022-07-15T06:15:31;6.55;;;2.50;;
10497;SDS011;5296;51.060;13.750;2022-07-15T06:20:33;4.80;;;2.03;;
10497;SDS011;5296;51.060;13.750;2022-07-15T06:25:34;6.47;;;1.70;;
10497;SDS011;5296;51.060;13.750;2022-07-15T06:30:36;10.07;;;2.13;;
10497;SDS011;5296;51.060;13.750;2022-07-15T06:35:39;4.10;;;1.73;;
10497;SDS011;5296;51.060;13.750;2022-07-15T06:40:45;5.00;;;2.30;;
10497;SDS011;5296;51.060;13.750;2022-07-15T06:45:48;5.68;;;2.50;;
10497;SDS011;5296;51.060;13.750;2022-07-15T06:50:51;6.22;;;2.00;;
10497;SDS011;5296;51.060;13.750;2022-07-15T06:55:53;15.65;;;2.53;;
10497;SDS011;5296;51.060;13.750;2022-07-15T07:00:55;5.28;;;1.88;;
10497;SDS011;5296;51.060;13.750;2022-07-15T07:05:57;6.60;;;4.13;;
10497;SDS011;5296;51.060;13.750;2022-07-15T07:10:59;4.57;;;2.88;;
10497;SDS011;5296;51.060;13.750;2022-07-15T07:16:00;6.90;;;1.50;;
10497;SDS011;5296;51.060;13.750;2022-07-15T07:21:03;6.03;;;1.85;;
10497;SDS011;5296;51.060;13.750;2022-07-15T07:26:06;7.28;;;1.92;;
10497;SDS011;5296;51.060;13.750;2022-07-15T07:31:08;4.57;;;1.92;;
10497;SDS011;5296;51.060;13.750;2022-07-15T07:36:11;3.78;;;1.65;;
10497;SDS011;5296;51.060;13.750;2022-07-15T07:41:13;5.55;;;1.80;;
10497;SDS011;5296;51.060;13.750;2022-07-15T07:46:15;5.78;;;1.92;;
10497;SDS011;5296;51.060;13.750;2022-07-15T07:51:18;7.60;;;2.00;;
10497;SDS011;5296;51.060;13.750;2022-07-15T07:56:20;4.38;;;1.40;;
10497;SDS011;5296;51.060;13.750;2022-07-15T08:01:21;7.25;;;2.20;;
10497;SDS011;5296;51.060;13.750;2022-07-15T08:06:23;11.88;;;2.55;;
10497;SDS011;5296;51.060;13.750;2022-07-15T08:11:25;9.38;;;2.78;;
10497;SDS011;5296;51.060;13.750;2022-07-15T08:16:26;6.93;;;2.45;;
10497;SDS011;5296;51.060;13.750;2022-07-15T08:21:28;5.28;;;1.48;;
10497;SDS011;5296;51.060;13.750;2022-07-15T08:26:30;5.97;;;1.58;;
10497;SDS011;5296;51.060;13.750;2022-07-15T08:31:33;5.45;;;1.40;;
10497;SDS011;5296;51.060;13.750;2022-07-15T08:36:37;2.70;;;1.35;;
10497;SDS011;5296;51.060;13.750;2022-07-15T08:41:39;1.85;;;1.10;;
10497;SDS011;5296;51.060;13.750;2022-07-15T08:46:41;4.55;;;1.63;;
10497;SDS011;5296;51.060;13.750;2022-07-15T08:51:48;4.53;;;1.65;;
10497;SDS011;5296;51.060;13.750;2022-07-15T08:56:50;5.07;;;1.48;;
10497;SDS011;5296;51.060;13.750;2022-07-15T09:01:52;4.78;;;1.65;;
10497;SDS011;5296;51.060;13.750;2022-07-15T09:06:55;12.10;;;2.15;;
10497;SDS011;5296;51.060;13.750;2022-07-15T09:12:18;12.88;;;2.70;;
10497;SDS011;5296;51.060;13.750;2022-07-15T09:17:19;8.60;;;2.75;;
10497;SDS011;5296;51.060;13.750;2022-07-15T09:22:21;9.90;;;2.50;;
10497;SDS011;5296;51.060;13.750;2022-07-15T09:27:27;3.28;;;1.63;;
10497;SDS011;5296;51.060;13.750;2022-07-15T09:32:29;6.18;;;1.55;;
10497;SDS011;5296;51.060;13.750;2022-07-15T09:37:56;7.53;;;2.35;;
10497;SDS011;5296;51.060;13.750;2022-07-15T09:43:02;7.20;;;1.85;;
10497;SDS011;5296;51.060;13.750;2022-07-15T09:48:08;6.45;;;1.88;;
10497;SDS011;5296;51.060;13.750;2022-07-15T09:53:11;4.75;;;1.90;;
10497;SDS011;5296;51.060;13.750;2022-07-15T09:58:14;6.43;;;1.83;;
10497;SDS011;5296;51.060;13.750;2022-07-15T10:03:16;3.60;;;1.75;;
10497;SDS011;5296;51.060;13.750;2022-07-15T10:08:18;3.85;;;1.63;;
10497;SDS011;5296;51.060;13.750;2022-07-15T10:24:14;2.85;;;1.35;;
10497;SDS011;5296;51.060;13.750;2022-07-15T10:29:29;3.15;;;1.40;;
10497;SDS011;5296;51.060;13.750;2022-07-15T10:34:35;4.75;;;1.98;;
10497;SDS011;5296;51.060;13.750;2022-07-15T10:39:56;4.78;;;1.55;;
10497;SDS011;5296;51.060;13.750;2022-07-15T10:45:06;11.60;;;2.30;;
10497;SDS011;5296;51.060;13.750;2022-07-15T10:55:41;5.80;;;1.50;;
10497;SDS011;5296;51.060;13.750;2022-07-15T11:00:43;7.28;;;1.83;;
10497;SDS011;5296;51.060;13.750;2022-07-15T11:10:50;5.13;;;1.63;;
10497;SDS011;5296;51.060;13.750;2022-07-15T11:15:58;6.10;;;1.67;;
10497;SDS011;5296;51.060;13.750;2022-07-15T11:21:00;4.07;;;1.60;;
10497;SDS011;5296;51.060;13.750;2022-07-15T11:26:03;4.10;;;1.42;;
10497;SDS011;5296;51.060;13.750;2022-07-15T11:31:05;6.10;;;1.65;;
10497;SDS011;5296;51.060;13.750;2022-07-15T11:36:07;2.80;;;1.48;;
10497;SDS011;5296;51.060;13.750;2022-07-15T11:41:23;2.75;;;1.52;;
10497;SDS011;5296;51.060;13.750;2022-07-15T11:46:43;6.18;;;1.65;;
10497;SDS011;5296;51.060;13.750;2022-07-15T11:51:46;3.85;;;1.25;;
10497;SDS011;5296;51.060;13.750;2022-07-15T11:56:57;7.72;;;1.98;;
10497;SDS011;5296;51.060;13.750;2022-07-15T12:07:05;2.72;;;1.35;;
10497;SDS011;5296;51.060;13.750;2022-07-15T12:12:07;4.35;;;1.70;;
10497;SDS011;5296;51.060;13.750;2022-07-15T12:17:09;4.38;;;1.30;;
10497;SDS011;5296;51.060;13.750;2022-07-15T12:22:11;4.07;;;1.50;;
10497;SDS011;5296;51.060;13.750;2022-07-15T12:27:14;2.92;;;1.38;;
10497;SDS011;5296;51.060;13.750;2022-07-15T12:32:15;4.30;;;1.60;;
10497;SDS011;5296;51.060;13.750;2022-07-15T12:37:21;6.30;;;1.38;;
10497;SDS011;5296;51.060;13.750;2022-07-15T12:42:38;1.35;;;1.02;;
10497;SDS011;5296;51.060;13.750;2022-07-15T12:48:00;4.22;;;1.23;;
10497;SDS011;5296;51.060;13.750;2022-07-15T12:53:15;3.30;;;1.13;;
10497;SDS011;5296;51.060;13.750;2022-07-15T12:58:23;3.40;;;1.30;;
10497;SDS011;5296;51.060;13.750;2022-07-15T13:03:26;2.30;;;1.10;;
10497;SDS011;5296;51.060;13.750;2022-07-15T13:08:34;2.35;;;1.27;;
10497;SDS011;5296;51.060;13.750;2022-07-15T13:13:38;7.70;;;1.80;;
10497;SDS011;5296;51.060;13.750;2022-07-15T13:18:40;10.38;;;1.95;;
10497;SDS011;5296;51.060;13.750;2022-07-15T13:23:42;5.78;;;1.80;;
10497;SDS011;5296;51.060;13.750;2022-07-15T13:28:44;10.60;;;2.10;;
10497;SDS011;5296;51.060;13.750;2022-07-15T13:33:45;6.15;;;2.00;;
10497;SDS011;5296;51.060;13.750;2022-07-15T13:38:55;3.72;;;1.60;;
10497;SDS011;5296;51.060;13.750;2022-07-15T13:43:57;14.20;;;2.08;;
10497;SDS011;5296;51.060;13.750;2022-07-15T13:48:58;1.83;;;1.30;;
10497;SDS011;5296;51.060;13.750;2022-07-15T13:54:00;2.45;;;1.40;;
10497;SDS011;5296;51.060;13.750;2022-07-15T13:59:02;3.90;;;1.30;;
10497;SDS011;5296;51.060;13.750;2022-07-15T14:04:04;3.08;;;1.40;;
10497;SDS011;5296;51.060;13.750;2022-07-15T14:09:06;3.40;;;1.25;;
10497;SDS011;5296;51.060;13.750;2022-07-15T14:14:08;3.38;;;1.40;;
10497;SDS011;5296;51.060;13.750;2022-07-15T14:19:09;2.70;;;1.27;;
10497;SDS011;5296;51.060;13.750;2022-07-15T14:24:11;4.80;;;1.63;;
10497;SDS011;5296;51.060;13.750;2022-07-15T14:29:12;1.83;;;1.02;;
10497;SDS011;5296;51.060;13.750;2022-07-15T14:34:14;3.45;;;1.42;;
10497;SDS011;5296;51.060;13.750;2022-07-15T14:39:16;3.90;;;1.50;;
10497;SDS011;5296;51.060;13.750;2022-07-15T14:44:18;5.32;;;1.33;;
10497;SDS011;5296;51.060;13.750;2022-07-15T14:49:19;3.20;;;1.40;;
10497;SDS011;5296;51.060;13.750;2022-07-15T14:54:22;3.70;;;1.50;;
10497;SDS011;5296;51.060;13.750;2022-07-15T14:59:24;2.55;;;1.40;;
10497;SDS011;5296;51.060;13.750;2022-07-15T15:04:25;3.67;;;1.67;;
10497;SDS011;5296;51.060;13.750;2022-07-15T15:09:29;2.65;;;1.40;;
10497;SDS011;5296;51.060;13.750;2022-07-15T15:14:30;3.97;;;1.60;;
10497;SDS011;5296;51.060;13.750;2022-07-15T15:19:32;3.15;;;1.65;;
10497;SDS011;5296;51.060;13.750;2022-07-15T15:24:34;2.25;;;1.40;;
10497;SDS011;5296;51.060;13.750;2022-07-15T15:29:36;1.77;;;1.40;;
10497;SDS011;5296;51.060;13.750;2022-07-15T15:34:39;3.50;;;1.45;;
10497;SDS011;5296;51.060;13.750;2022-07-15T15:39:41;4.25;;;1.40;;
10497;SDS011;5296;51.060;13.750;2022-07-15T15:44:43;4.00;;;1.35;;
10497;SDS011;5296;51.060;13.750;2022-07-15T15:49:45;1.67;;;1.35;;
10497;SDS011;5296;51.060;13.750;2022-07-15T15:54:47;2.17;;;1.70;;
10497;SDS011;5296;51.060;13.750;2022-07-15T15:59:48;3.28;;;1.60;;
10497;SDS011;5296;51.060;13.750;2022-07-15T16:04:50;2.28;;;1.45;;
10497;SDS011;5296;51.060;13.750;2022-07-15T16:10:11;6.00;;;1.73;;
10497;SDS011;5296;51.060;13.750;2022-07-15T16:15:13;3.03;;;1.60;;
10497;SDS011;5296;51.060;13.750;2022-07-15T16:20:15;2.40;;;1.33;;
10497;SDS011;5296;51.060;13.750;2022-07-15T16:25:17;4.00;;;1.60;;
10497;SDS011;5296;51.060;13.750;2022-07-15T16:30:19;3.47;;;1.65;;
10497;SDS011;5296;51.060;13.750;2022-07-15T16:35:31;1.70;;;1.30;;
10497;SDS011;5296;51.060;13.750;2022-07-15T16:40:33;2.83;;;1.58;;
10497;SDS011;5296;51.060;13.750;2022-07-15T16:45:36;2.58;;;1.70;;
10497;SDS011;5296;51.060;13.750;2022-07-15T16:50:38;3.58;;;1.63;;
10497;SDS011;5296;51.060;13.750;2022-07-15T16:55:40;3.30;;;1.70;;
10497;SDS011;5296;51.060;13.750;2022-07-15T17:00:41;2.60;;;1.80;;
10497;SDS011;5296;51.060;13.750;2022-07-15T17:05:43;3.50;;;1.90;;
10497;SDS011;5296;51.060;13.750;2022-07-15T17:10:45;3.92;;;1.35;;
10497;SDS011;5296;51.060;13.750;2022-07-15T17:15:47;5.10;;;1.75;;
10497;SDS011;5296;51.060;13.750;2022-07-15T17:20:48;4.50;;;1.83;;
10497;SDS011;5296;51.060;13.750;2022-07-15T17:25:50;2.40;;;1.35;;
10497;SDS011;5296;51.060;13.750;2022-07-15T17:30:52;4.72;;;1.58;;
10497;SDS011;5296;51.060;13.750;2022-07-15T17:35:53;5.35;;;1.42;;
10497;SDS011;5296;51.060;13.750;2022-07-15T17:40:55;3.05;;;1.58;;
10497;SDS011;5296;51.060;13.750;2022-07-15T17:45:57;2.75;;;1.45;;
10497;SDS011;5296;51.060;13.750;2022-07-15T17:50:59;3.38;;;1.75;;
10497;SDS011;5296;51.060;13.750;2022-07-15T17:56:01;6.30;;;1.80;;
10497;SDS011;5296;51.060;13.750;2022-07-15T18:01:03;4.03;;;1.50;;
10497;SDS011;5296;51.060;13.750;2022-07-15T18:06:05;2.45;;;1.58;;
10497;SDS011;5296;51.060;13.750;2022-07-15T18:11:07;6.30;;;1.50;;
10497;SDS011;5296;51.060;13.750;2022-07-15T18:16:09;5.03;;;1.73;;
10497;SDS011;5296;51.060;13.750;2022-07-15T18:21:10;2.22;;;1.63;;
10497;SDS011;5296;51.060;13.750;2022-07-15T18:26:12;4.20;;;1.55;;
10497;SDS011;5296;51.060;13.750;2022-07-15T18:31:22;3.47;;;1.63;;
10497;SDS011;5296;51.060;13.750;2022-07-15T18:36:24;2.90;;;1.60;;
10497;SDS011;5296;51.060;13.750;2022-07-15T18:41:25;3.35;;;1.60;;
10497;SDS011;5296;51.060;13.750;2022-07-15T18:46:27;5.45;;;1.70;;
10497;SDS011;5296;51.060;13.750;2022-07-15T18:51:29;3.08;;;1.92;;
10497;SDS011;5296;51.060;13.750;2022-07-15T18:56:31;2.65;;;1.60;;
10497;SDS011;5296;51.060;13.750;2022-07-15T19:01:32;4.53;;;2.20;;
10497;SDS011;5296;51.060;13.750;2022-07-15T19:06:34;3.97;;;2.20;;
10497;SDS011;5296;51.060;13.750;2022-07-15T19:11:36;5.60;;;2.00;;
10497;SDS011;5296;51.060;13.750;2022-07-15T19:16:38;1.90;;;1.70;;
10497;SDS011;5296;51.060;13.750;2022-07-15T19:21:39;3.15;;;1.73;;
10497;SDS011;5296;51.060;13.750;2022-07-15T19:26:42;2.30;;;1.75;;
10497;SDS011;5296;51.060;13.750;2022-07-15T19:31:44;2.58;;;1.98;;
10497;SDS011;5296;51.060;13.750;2022-07-15T19:36:46;2.20;;;1.80;;
10497;SDS011;5296;51.060;13.750;2022-07-15T19:41:47;5.22;;;2.42;;
10497;SDS011;5296;51.060;13.750;2022-07-15T19:46:49;4.55;;;2.00;;
10497;SDS011;5296;51.060;13.750;2022-07-15T19:51:50;4.07;;;1.92;;
10497;SDS011;5296;51.060;13.750;2022-07-15T19:56:52;5.30;;;1.80;;
10497;SDS011;5296;51.060;13.750;2022-07-15T20:01:54;2.95;;;1.80;;
10497;SDS011;5296;51.060;13.750;2022-07-15T20:06:56;7.47;;;2.17;;
10497;SDS011;5296;51.060;13.750;2022-07-15T20:11:57;4.32;;;2.20;;
10497;SDS011;5296;51.060;13.750;2022-07-15T20:16:59;2.28;;;1.70;;
10497;SDS011;5296;51.060;13.750;2022-07-15T20:22:01;4.03;;;2.20;;
10497;SDS011;5296;51.060;13.750;2022-07-15T20:27:02;3.65;;;2.17;;
10497;SDS011;5296;51.060;13.750;2022-07-15T20:32:05;3.38;;;2.65;;
10497;SDS011;5296;51.060;13.750;2022-07-15T20:37:07;3.65;;;2.22;;
10497;SDS011;5296;51.060;13.750;2022-07-15T20:42:09;4.97;;;3.17;;
10497;SDS011;5296;51.060;13.750;2022-07-15T20:47:10;9.27;;;3.55;;
10497;SDS011;5296;51.060;13.750;2022-07-15T20:52:12;23.13;;;6.03;;
10497;SDS011;5296;51.060;13.750;2022-07-15T20:57:14;12.27;;;4.10;;
10497;SDS011;5296;51.060;13.750;2022-07-15T21:02:16;11.90;;;5.30;;
10497;SDS011;5296;51.060;13.750;2022-07-15T21:07:18;11.02;;;4.15;;
10497;SDS011;5296;51.060;13.750;2022-07-15T21:12:20;14.88;;;3.40;;
10497;SDS011;5296;51.060;13.750;2022-07-15T21:17:21;11.93;;;3.58;;
10497;SDS011;5296;51.060;13.750;2022-07-15T21:22:23;8.10;;;3.60;;
10497;SDS011;5296;51.060;13.750;2022-07-15T21:27:25;7.80;;;3.53;;
10497;SDS011;5296;51.060;13.750;2022-07-15T21:32:28;6.20;;;3.30;;
10497;SDS011;5296;51.060;13.750;2022-07-15T21:37:29;5.72;;;3.63;;
10497;SDS011;5296;51.060;13.750;2022-07-15T21:42:31;7.50;;;3.40;;
10497;SDS011;5296;51.060;13.750;2022-07-15T21:47:33;7.15;;;3.83;;
10497;SDS011;5296;51.060;13.750;2022-07-15T21:52:35;9.20;;;4.28;;
10497;SDS011;5296;51.060;13.750;2022-07-15T21:57:37;7.78;;;3.38;;
10497;SDS011;5296;51.060;13.750;2022-07-15T22:02:39;8.65;;;3.53;;
10497;SDS011;5296;51.060;13.750;2022-07-15T22:07:42;7.13;;;4.47;;
10497;SDS011;5296;51.060;13.750;2022-07-15T22:12:43;5.35;;;3.70;;
10497;SDS011;5296;51.060;13.750;2022-07-15T22:17:45;5.07;;;3.35;;
10497;SDS011;5296;51.060;13.750;2022-07-15T22:22:47;5.80;;;3.75;;
10497;SDS011;5296;51.060;13.750;2022-07-15T22:27:49;6.30;;;2.90;;
10497;SDS011;5296;51.060;13.750;2022-07-15T22:32:50;4.35;;;3.33;;
10497;SDS011;5296;51.060;13.750;2022-07-15T22:37:52;5.63;;;3.53;;
10497;SDS011;5296;51.060;13.750;2022-07-15T22:42:54;4.78;;;3.20;;
10497;SDS011;5296;51.060;13.750;2022-07-15T22:47:56;5.40;;;3.30;;
10497;SDS011;5296;51.060;13.750;2022-07-15T22:53:00;5.65;;;3.00;;
10497;SDS011;5296;51.060;13.750;2022-07-15T22:58:02;6.75;;;3.17;;
10497;SDS011;5296;51.060;13.750;2022-07-15T23:03:04;4.07;;;2.75;;
10497;SDS011;5296;51.060;13.750;2022-07-15T23:08:06;4.53;;;3.15;;
10497;SDS011;5296;51.060;13.750;2022-07-15T23:13:08;4.82;;;3.30;;
10497;SDS011;5296;51.060;13.750;2022-07-15T23:18:09;3.47;;;2.88;;
10497;SDS011;5296;51.060;13.750;2022-07-15T23:23:11;2.88;;;2.58;;
10497;SDS011;5296;51.060;13.750;2022-07-15T23:28:13;5.03;;;2.83;;
10497;SDS011;5296;51.060;13.750;2022-07-15T23:33:14;5.13;;;3.30;;
10497;SDS011;5296;51.060;13.750;2022-07-15T23:38:16;6.80;;;3.83;;
10497;SDS011;5296;51.060;13.750;2022-07-15T23:43:18;6.13;;;3.20;;
10497;SDS011;5296;51.060;13.750;2022-07-15T23:48:19;5.22;;;2.75;;
10497;SDS011;5296;51.060;13.750;2022-07-15T23:53:21;3.83;;;3.00;;
10497;SDS011;5296;51.060;13.750;2022-07-15T23:58:23;3.42;;;3.10;;
